Tunnel City, Wisconsin
Current Conditions -  °F | °C
As of 12:15 AM on Thursday 29 Jan 2015 (Local Time) from KCMY Reporting Station
Haze Haze  
Wind Chill: 30°   Ceiling: 1800
Heat Index: 30°   Visibility: 4mi
Dew Point: 29°   Wind: 0mph
Humidity: 96%   Direction: NA
Pressure: 29.81"   Gusts: NA
Location:  44.01°N, 90.57°W
Report Text: KCMY 290615Z AUTO 00000KT 4SM BR OVC018 M01/M02 A2981 RMK AO2 T10121017
Loading
Personal Weather Stations






























Interactive Weather Map New forecast layout! Learn more

10-Day Weather Forecast

Advertisements
Track Severe Weather on mobile